createdAt,value
2018-06-15T00:00:22.478Z,64.40
2018-06-15T00:02:56.307Z,64.40
2018-06-15T00:05:24.818Z,64.20
2018-06-15T00:07:53.640Z,64.50
2018-06-15T00:10:22.098Z,65.00
2018-06-15T00:12:50.578Z,65.10
2018-06-15T00:15:19.023Z,65.10
2018-06-15T00:17:47.509Z,65.00
2018-06-15T00:20:15.953Z,64.80
2018-06-15T00:22:44.857Z,65.10
2018-06-15T00:25:13.403Z,65.30
2018-06-15T00:27:41.894Z,65.40
2018-06-15T00:30:10.434Z,65.50
2018-06-15T00:32:38.949Z,65.50
2018-06-15T00:35:07.490Z,65.50
2018-06-15T00:37:35.943Z,65.50
2018-06-15T00:40:04.519Z,65.50
2018-06-15T00:45:01.135Z,65.50
2018-06-15T00:47:29.611Z,65.50
2018-06-15T00:49:58.183Z,65.50
2018-06-15T00:52:26.656Z,65.50
2018-06-15T00:54:55.174Z,65.40
2018-06-15T00:57:35.007Z,65.30
2018-06-15T01:00:04.365Z,65.30
2018-06-15T01:02:32.838Z,65.30
2018-06-15T01:05:01.322Z,66.10
2018-06-15T01:07:29.929Z,65.00
2018-06-15T01:09:58.395Z,66.30
2018-06-15T01:12:26.834Z,65.90
2018-06-15T01:14:55.341Z,66.10
2018-06-15T01:19:52.009Z,66.80
2018-06-15T01:22:20.468Z,66.60
2018-06-15T01:27:17.133Z,66.70
2018-06-15T01:29:45.703Z,67.10
2018-06-15T01:32:14.228Z,66.80
2018-06-15T01:34:42.680Z,67.20
2018-06-15T01:37:11.394Z,67.30
2018-06-15T01:39:40.838Z,67.60
2018-06-15T01:42:09.474Z,67.90
2018-06-15T01:44:37.913Z,67.70
2018-06-15T01:47:06.454Z,67.40
2018-06-15T01:49:34.956Z,68.50
2018-06-15T01:52:03.447Z,68.30
2018-06-15T01:54:31.891Z,68.40
2018-06-15T01:57:00.385Z,68.50
2018-06-15T01:59:28.851Z,69.40
2018-06-15T02:01:57.334Z,69.40
2018-06-15T02:04:25.807Z,69.40
2018-06-15T02:06:54.246Z,69.30
2018-06-15T02:09:22.755Z,69.30
2018-06-15T02:11:51.255Z,68.50
2018-06-15T02:14:19.770Z,69.20
2018-06-15T02:16:48.237Z,69.10
2018-06-15T02:19:17.614Z,70.10
2018-06-15T02:21:46.099Z,69.90
2018-06-15T02:24:14.622Z,70.20
2018-06-15T02:26:43.092Z,69.90
2018-06-15T02:29:11.593Z,70.00
2018-06-15T02:31:40.093Z,70.30
2018-06-15T02:34:08.579Z,70.00
2018-06-15T02:36:37.046Z,70.30
2018-06-15T02:39:08.287Z,70.00
2018-06-15T02:41:36.862Z,70.10
2018-06-15T02:44:05.401Z,69.80
2018-06-15T02:46:33.862Z,70.00
2018-06-15T02:49:02.371Z,69.90
2018-06-15T02:51:30.885Z,70.00
2018-06-15T02:53:59.399Z,70.10
2018-06-15T02:56:27.902Z,70.00
2018-06-15T02:58:56.417Z,69.20
2018-06-15T03:01:24.953Z,69.20
2018-06-15T03:03:53.647Z,69.60
2018-06-15T03:06:22.362Z,69.30
2018-06-15T03:08:50.985Z,69.30
2018-06-15T03:11:20.499Z,69.30
2018-06-15T03:13:48.962Z,69.30
2018-06-15T03:16:17.486Z,69.60
2018-06-15T03:18:46.640Z,69.40
2018-06-15T03:21:15.173Z,69.70
2018-06-15T03:23:43.730Z,69.60
2018-06-15T03:26:12.234Z,69.80
2018-06-15T03:28:40.899Z,69.60
2018-06-15T03:31:09.530Z,69.40
2018-06-15T03:33:38.006Z,69.50
2018-06-15T03:36:06.536Z,69.60
2018-06-15T03:38:35.056Z,69.70
2018-06-15T03:41:03.763Z,69.70
2018-06-15T03:43:32.290Z,69.20
2018-06-15T03:46:00.786Z,69.30
2018-06-15T03:48:29.250Z,68.90
2018-06-15T03:50:57.764Z,68.60
2018-06-15T03:53:26.238Z,68.50
2018-06-15T03:55:54.707Z,68.80
2018-06-15T03:58:23.182Z,67.90
2018-06-15T04:00:51.734Z,67.70
2018-06-15T04:03:20.186Z,67.20
2018-06-15T04:05:48.696Z,67.20
2018-06-15T04:08:17.161Z,67.50
2018-06-15T04:10:45.669Z,66.90
2018-06-15T04:13:14.387Z,66.50
2018-06-15T04:15:42.846Z,66.30
2018-06-15T04:18:11.507Z,66.50
2018-06-15T04:20:40.352Z,66.20
2018-06-15T04:23:08.818Z,66.00
2018-06-15T04:25:37.260Z,65.50
2018-06-15T04:28:05.798Z,66.30
2018-06-15T04:30:34.394Z,65.60
2018-06-15T04:33:02.909Z,65.10
2018-06-15T04:35:31.390Z,65.30
2018-06-15T04:37:59.910Z,64.70
2018-06-15T04:40:28.409Z,64.60
2018-06-15T04:42:57.619Z,64.40
2018-06-15T04:45:26.147Z,63.80
2018-06-15T04:47:54.606Z,63.90
2018-06-15T04:50:23.131Z,63.80
2018-06-15T04:52:51.602Z,63.80
2018-06-15T04:57:48.280Z,63.30
2018-06-15T05:00:16.794Z,63.40
2018-06-15T05:02:45.273Z,63.50
2018-06-15T05:05:13.801Z,63.60
2018-06-15T05:07:42.318Z,63.60
2018-06-15T05:10:10.778Z,63.20
2018-06-15T05:12:39.261Z,63.20
2018-06-15T05:15:07.731Z,63.00
2018-06-15T05:17:36.268Z,62.50
2018-06-15T05:20:05.414Z,62.00
2018-06-15T05:25:02.969Z,62.50
2018-06-15T05:27:31.498Z,62.40
2018-06-15T05:30:00.050Z,61.80
2018-06-15T05:32:28.675Z,61.70
2018-06-15T05:34:57.144Z,61.30
2018-06-15T05:37:25.770Z,61.40
2018-06-15T05:39:54.255Z,61.30
2018-06-15T05:42:22.772Z,61.30
2018-06-15T05:44:51.243Z,61.30
2018-06-15T05:47:19.751Z,60.90
2018-06-15T05:49:48.295Z,61.20
2018-06-15T05:52:16.820Z,61.20
2018-06-15T05:54:45.419Z,61.20
2018-06-15T05:57:14.058Z,61.20
2018-06-15T05:59:42.538Z,60.80
2018-06-15T06:02:11.071Z,60.80
2018-06-15T06:04:39.530Z,61.00
2018-06-15T06:07:08.151Z,61.50
2018-06-15T06:09:36.616Z,60.80
2018-06-15T06:12:05.127Z,60.20
2018-06-15T06:14:33.579Z,60.10
2018-06-15T06:17:02.095Z,60.20
2018-06-15T06:19:30.561Z,60.10
2018-06-15T06:21:59.069Z,60.10
2018-06-15T06:24:27.523Z,60.10
2018-06-15T06:26:56.050Z,60.20
2018-06-15T06:29:24.514Z,60.20
2018-06-15T06:31:53.017Z,60.20
2018-06-15T06:34:21.577Z,60.30
2018-06-15T06:36:50.062Z,60.30
2018-06-15T06:39:18.538Z,60.40
2018-06-15T06:41:47.039Z,60.20
2018-06-15T06:44:15.542Z,60.30
2018-06-15T06:46:44.063Z,60.40
2018-06-15T06:49:12.578Z,60.30
2018-06-15T06:51:41.102Z,59.80
2018-06-15T06:54:09.571Z,60.30
2018-06-15T06:56:38.087Z,60.30
2018-06-15T06:59:06.572Z,60.40
2018-06-15T07:01:35.101Z,60.50
2018-06-15T07:04:03.638Z,59.60
2018-06-15T07:06:32.295Z,59.60
2018-06-15T07:09:00.798Z,59.40
2018-06-15T07:11:29.303Z,59.30
2018-06-15T07:13:57.782Z,59.10
2018-06-15T07:16:26.616Z,58.70
2018-06-15T07:18:55.144Z,58.10
2018-06-15T07:21:23.614Z,58.40
2018-06-15T07:23:52.072Z,57.90
2018-06-15T07:26:20.586Z,57.10
2018-06-15T07:28:49.066Z,57.40
2018-06-15T07:31:17.611Z,57.30
2018-06-15T07:33:46.082Z,57.60
2018-06-15T07:36:14.609Z,57.30
2018-06-15T07:38:43.115Z,57.20
2018-06-15T07:41:11.696Z,56.80
2018-06-15T07:43:40.314Z,56.60
2018-06-15T07:46:08.954Z,56.50
2018-06-15T07:48:37.443Z,56.30
2018-06-15T07:51:05.954Z,55.40
2018-06-15T07:53:34.583Z,55.60
2018-06-15T07:56:03.120Z,55.60
2018-06-15T07:58:31.690Z,55.60
2018-06-15T08:01:00.301Z,55.60
2018-06-15T08:03:28.832Z,55.60
2018-06-15T08:05:57.345Z,55.70
2018-06-15T08:08:26.962Z,55.70
2018-06-15T08:10:55.548Z,55.70
2018-06-15T08:13:27.959Z,55.80
2018-06-15T08:15:57.222Z,55.80
2018-06-15T08:18:25.701Z,55.80
2018-06-15T08:20:54.167Z,55.80
2018-06-15T08:23:23.451Z,55.70
2018-06-15T08:25:51.934Z,55.60
2018-06-15T08:28:20.487Z,55.20
2018-06-15T08:30:49.104Z,54.90
2018-06-15T08:35:45.896Z,54.20
2018-06-15T08:38:14.644Z,54.00
2018-06-15T08:40:47.426Z,52.90
2018-06-15T08:43:15.945Z,53.20
2018-06-15T08:45:44.598Z,52.90
2018-06-15T08:48:13.280Z,52.70
2018-06-15T08:50:41.763Z,52.70
2018-06-15T08:53:10.283Z,52.30
2018-06-15T08:55:38.864Z,52.70
2018-06-15T08:58:07.475Z,51.70
2018-06-15T09:00:35.967Z,51.90
2018-06-15T09:03:04.507Z,52.00
2018-06-15T09:05:33.002Z,52.00
2018-06-15T09:08:01.623Z,52.00
2018-06-15T09:10:30.079Z,52.20
2018-06-15T09:12:58.597Z,52.10
2018-06-15T09:15:27.055Z,51.60
2018-06-15T09:17:55.578Z,51.50
2018-06-15T09:20:24.097Z,51.20
2018-06-15T09:22:52.565Z,51.50
2018-06-15T09:25:21.108Z,51.60
2018-06-15T09:27:49.592Z,51.80
2018-06-15T09:30:18.085Z,51.90
2018-06-15T09:32:46.604Z,52.20
2018-06-15T09:35:15.172Z,52.10
2018-06-15T09:37:43.692Z,51.90
2018-06-15T09:40:12.272Z,50.20
2018-06-15T09:42:40.771Z,50.30
2018-06-15T09:45:09.318Z,50.20
2018-06-15T09:47:37.806Z,50.30
2018-06-15T09:50:06.338Z,50.50
2018-06-15T09:52:34.844Z,50.20
2018-06-15T09:55:03.362Z,50.20
2018-06-15T09:57:31.912Z,50.30
2018-06-15T10:00:00.422Z,50.30
2018-06-15T10:02:28.928Z,50.30
2018-06-15T10:04:57.487Z,50.30
2018-06-15T10:07:25.982Z,50.20
2018-06-15T10:09:54.524Z,50.30
2018-06-15T10:12:23.051Z,50.40
2018-06-15T10:14:51.571Z,50.40
2018-06-15T10:17:20.106Z,50.50
2018-06-15T10:19:48.579Z,50.50
2018-06-15T10:22:17.099Z,50.50
2018-06-15T10:24:45.573Z,50.50
2018-06-15T10:27:14.125Z,50.60
2018-06-15T10:29:42.683Z,50.60
2018-06-15T10:32:11.254Z,50.60
2018-06-15T10:34:39.735Z,50.60
2018-06-15T10:37:08.261Z,50.60
2018-06-15T10:39:36.858Z,50.60
2018-06-15T10:42:05.334Z,50.60
2018-06-15T10:44:33.805Z,51.30
2018-06-15T10:47:02.307Z,50.40
2018-06-15T10:49:30.783Z,50.30
2018-06-15T10:51:59.327Z,50.50
2018-06-15T10:54:27.810Z,50.30
2018-06-15T10:56:56.374Z,50.80
2018-06-15T10:59:24.911Z,51.30
2018-06-15T11:01:53.503Z,51.00
2018-06-15T11:04:21.995Z,50.80
2018-06-15T11:06:50.616Z,51.60
2018-06-15T11:09:19.102Z,51.50
2018-06-15T11:11:47.607Z,50.80
2018-06-15T11:14:16.116Z,50.30
2018-06-15T11:16:45.484Z,50.50
2018-06-15T11:19:14.129Z,50.50
2018-06-15T11:21:42.597Z,50.60
2018-06-15T11:24:11.171Z,50.80
2018-06-15T11:26:39.663Z,50.80
2018-06-15T11:29:08.199Z,49.60
2018-06-15T11:31:36.733Z,50.60
2018-06-15T11:34:05.249Z,50.50
2018-06-15T11:36:33.731Z,49.80
2018-06-15T11:39:02.293Z,50.60
2018-06-15T11:41:30.890Z,50.50
2018-06-15T11:43:59.450Z,50.50
2018-06-15T11:46:27.933Z,50.30
2018-06-15T11:48:56.477Z,51.10
2018-06-15T11:51:24.979Z,51.30
2018-06-15T11:53:53.451Z,51.90
2018-06-15T11:56:21.974Z,51.00
2018-06-15T11:58:50.456Z,50.70
2018-06-15T12:01:18.988Z,50.20
2018-06-15T12:03:47.470Z,50.20
2018-06-15T12:06:16.176Z,50.30
2018-06-15T12:08:44.757Z,50.90
2018-06-15T12:11:13.404Z,51.30
2018-06-15T12:13:42.442Z,51.30
2018-06-15T12:16:11.050Z,50.60
2018-06-15T12:18:39.572Z,50.90
2018-06-15T12:21:08.209Z,50.80
2018-06-15T12:23:36.713Z,50.50
2018-06-15T12:26:05.425Z,50.60
2018-06-15T12:28:33.908Z,50.60
2018-06-15T12:31:02.407Z,50.60
2018-06-15T12:33:31.014Z,50.60
2018-06-15T12:35:59.550Z,50.50
2018-06-15T12:38:28.312Z,50.40
2018-06-15T12:40:56.984Z,50.30
2018-06-15T12:43:25.513Z,50.60
2018-06-15T12:45:54.073Z,51.00
2018-06-15T12:48:22.641Z,51.60
2018-06-15T12:50:51.287Z,52.00
2018-06-15T12:53:21.057Z,52.60
2018-06-15T12:55:49.810Z,52.90
2018-06-15T12:58:18.361Z,52.80
2018-06-15T13:00:46.851Z,53.00
2018-06-15T13:03:15.384Z,53.10
2018-06-15T13:05:43.905Z,53.20
2018-06-15T13:08:12.549Z,52.90
2018-06-15T13:10:41.097Z,53.20
2018-06-15T13:13:09.615Z,53.10
2018-06-15T13:15:38.255Z,53.00
2018-06-15T13:18:06.777Z,53.30
2018-06-15T13:20:35.303Z,53.00
2018-06-15T13:23:04.615Z,52.70
2018-06-15T13:25:33.166Z,52.10
2018-06-15T13:28:01.765Z,51.80
2018-06-15T13:30:30.327Z,51.20
2018-06-15T13:32:58.979Z,51.30
2018-06-15T13:35:27.565Z,50.10
2018-06-15T13:37:56.933Z,47.50
2018-06-15T13:40:26.212Z,46.30
2018-06-15T13:42:54.693Z,46.20
2018-06-15T13:45:23.240Z,45.80
2018-06-15T13:47:51.749Z,45.70
2018-06-15T13:50:20.485Z,44.70
2018-06-15T13:52:48.964Z,45.40
2018-06-15T13:55:17.560Z,45.30
2018-06-15T13:57:46.119Z,45.20
2018-06-15T14:00:14.848Z,46.20
2018-06-15T14:02:43.476Z,45.70
2018-06-15T14:05:11.964Z,45.90
2018-06-15T14:07:40.628Z,46.80
2018-06-15T14:10:09.144Z,47.40
2018-06-15T14:12:37.690Z,48.10
2018-06-15T14:15:06.278Z,48.50
2018-06-15T14:17:34.947Z,48.60
2018-06-15T14:20:07.407Z,48.90
2018-06-15T14:22:38.472Z,49.30
2018-06-15T14:25:07.586Z,48.80
2018-06-15T14:27:36.754Z,48.10
2018-06-15T14:32:34.392Z,49.00
2018-06-15T14:35:03.205Z,49.10
2018-06-15T14:37:32.128Z,48.80
2018-06-15T14:40:01.468Z,48.60
2018-06-15T14:42:30.001Z,48.50
2018-06-15T14:44:58.746Z,48.40
2018-06-15T14:47:27.330Z,48.10
2018-06-15T14:49:55.932Z,48.20
2018-06-15T14:52:24.519Z,48.40
2018-06-15T14:54:53.026Z,48.10
2018-06-15T14:57:21.607Z,48.60
2018-06-15T14:59:50.844Z,48.90
2018-06-15T15:04:48.761Z,48.60
2018-06-15T15:07:18.017Z,48.70
2018-06-15T15:09:46.621Z,48.60
2018-06-15T15:12:16.060Z,48.50
2018-06-15T15:14:47.523Z,48.90
2018-06-15T15:17:18.055Z,48.80
2018-06-15T15:19:50.038Z,48.90
2018-06-15T15:25:00.443Z,49.80
2018-06-15T15:29:58.144Z,50.20
2018-06-15T15:32:26.805Z,50.10
2018-06-15T15:34:55.424Z,50.00
2018-06-15T15:37:24.010Z,50.10
2018-06-15T15:39:52.634Z,50.00
2018-06-15T15:42:22.050Z,49.90
2018-06-15T15:44:50.538Z,50.20
2018-06-15T15:49:48.435Z,51.60
2018-06-15T15:52:16.991Z,51.60
2018-06-15T15:54:45.657Z,52.00
2018-06-15T15:57:14.288Z,52.30
2018-06-15T15:59:42.869Z,52.60
2018-06-15T16:02:11.416Z,53.10
2018-06-15T16:04:40.675Z,53.20
2018-06-15T16:07:09.342Z,53.30
2018-06-15T16:09:37.827Z,53.50
2018-06-15T16:12:06.557Z,53.60
2018-06-15T16:14:35.052Z,53.90
2018-06-15T16:17:03.550Z,54.20
2018-06-15T16:19:32.194Z,54.10
2018-06-15T16:22:00.782Z,54.00
2018-06-15T16:24:30.091Z,54.10
2018-06-15T16:26:58.769Z,54.20
2018-06-15T16:29:27.603Z,53.50
2018-06-15T16:31:56.102Z,53.30
2018-06-15T16:34:24.739Z,52.90
2018-06-15T16:36:53.449Z,52.40
2018-06-15T16:39:22.003Z,52.20
2018-06-15T16:41:50.554Z,52.50
2018-06-15T16:44:19.163Z,52.80
2018-06-15T16:46:48.819Z,52.80
2018-06-15T16:49:17.470Z,53.00
2018-06-15T16:51:47.645Z,53.20
2018-06-15T16:54:17.185Z,53.60
2018-06-15T16:56:45.788Z,53.50
2018-06-15T16:59:14.382Z,53.80
2018-06-15T17:01:43.075Z,54.20
2018-06-15T17:04:11.621Z,54.60
2018-06-15T17:06:40.198Z,55.20
2018-06-15T17:09:10.223Z,55.60
2018-06-15T17:11:38.744Z,55.50
2018-06-15T17:14:07.298Z,55.60
2018-06-15T17:16:35.979Z,55.50
2018-06-15T17:19:04.528Z,56.10
2018-06-15T17:21:33.073Z,56.60
2018-06-15T17:24:01.647Z,57.20
2018-06-15T17:26:30.163Z,57.40
2018-06-15T17:28:58.869Z,57.80
2018-06-15T17:31:27.505Z,58.40
2018-06-15T17:33:56.320Z,58.60
2018-06-15T17:36:24.819Z,58.80
2018-06-15T17:38:53.320Z,58.40
2018-06-15T17:41:21.833Z,59.10
2018-06-15T17:43:50.380Z,59.30
2018-06-15T17:46:18.913Z,59.60
2018-06-15T17:48:47.429Z,59.70
2018-06-15T17:51:16.190Z,60.00
2018-06-15T17:53:44.814Z,60.30
2018-06-15T17:56:13.325Z,60.50
2018-06-15T17:58:41.828Z,60.40
2018-06-15T18:01:10.385Z,60.70
2018-06-15T18:03:38.992Z,60.80
2018-06-15T18:06:07.562Z,60.80
2018-06-15T18:08:37.026Z,61.30
2018-06-15T18:11:05.656Z,60.70
2018-06-15T18:13:34.288Z,60.70
2018-06-15T18:16:02.779Z,60.60
2018-06-15T18:18:31.421Z,60.60
2018-06-15T18:21:00.142Z,60.60
2018-06-15T18:23:28.699Z,60.50
2018-06-15T18:25:57.823Z,60.50
2018-06-15T18:28:26.404Z,60.50
2018-06-15T18:30:54.993Z,60.90
2018-06-15T18:33:26.672Z,61.20
2018-06-15T18:35:55.525Z,61.20
2018-06-15T18:38:25.036Z,61.50
2018-06-15T18:40:54.494Z,61.20
2018-06-15T18:43:23.138Z,61.40
2018-06-15T18:45:51.695Z,61.50
2018-06-15T18:48:20.415Z,61.40
2018-06-15T18:50:48.991Z,61.70
2018-06-15T18:53:17.507Z,61.80
2018-06-15T18:55:46.025Z,62.00
2018-06-15T18:58:14.589Z,61.90
2018-06-15T19:00:43.146Z,61.90
2018-06-15T19:03:11.729Z,61.80
2018-06-15T19:05:40.352Z,62.20
2018-06-15T19:08:08.867Z,61.90
2018-06-15T19:10:37.450Z,61.50
2018-06-15T19:13:06.219Z,62.10
2018-06-15T19:15:34.844Z,61.90
2018-06-15T19:18:04.294Z,62.60
2018-06-15T19:20:32.799Z,61.30
2018-06-15T19:23:01.512Z,61.40
2018-06-15T19:25:31.292Z,62.10
2018-06-15T19:27:59.986Z,62.40
2018-06-15T19:30:28.546Z,62.00
2018-06-15T19:32:57.284Z,62.50
2018-06-15T19:35:25.889Z,62.60
2018-06-15T19:37:54.400Z,62.50
2018-06-15T19:40:22.898Z,62.70
2018-06-15T19:42:51.415Z,63.00
2018-06-15T19:45:21.141Z,63.20
2018-06-15T19:47:51.229Z,63.40
2018-06-15T19:50:19.823Z,63.30
2018-06-15T19:52:48.441Z,63.50
2018-06-15T19:55:20.656Z,63.20
2018-06-15T19:57:49.217Z,63.30
2018-06-15T20:00:17.734Z,63.60
2018-06-15T20:02:48.151Z,64.00
2018-06-15T20:05:16.767Z,63.50
2018-06-15T20:07:45.544Z,64.30
2018-06-15T20:10:14.820Z,64.20
2018-06-15T20:12:44.158Z,64.50
2018-06-15T20:15:12.707Z,64.50
2018-06-15T20:17:42.117Z,64.50
2018-06-15T20:20:10.805Z,64.50
2018-06-15T20:22:40.848Z,64.50
2018-06-15T20:25:09.433Z,64.10
2018-06-15T20:27:38.300Z,64.50
2018-06-15T20:30:07.186Z,64.50
2018-06-15T20:32:35.766Z,64.50
2018-06-15T20:35:04.412Z,64.50
2018-06-15T20:37:32.937Z,64.70
2018-06-15T20:40:02.623Z,64.70
2018-06-15T20:42:32.340Z,65.20
2018-06-15T20:45:00.872Z,65.00
2018-06-15T20:47:29.411Z,65.10
2018-06-15T20:49:58.019Z,65.20
2018-06-15T20:52:26.558Z,65.20
2018-06-15T20:54:55.102Z,65.10
2018-06-15T20:57:23.649Z,65.30
2018-06-15T20:59:52.324Z,65.50
2018-06-15T21:02:20.952Z,65.50
2018-06-15T21:04:50.369Z,65.40
2018-06-15T21:07:18.993Z,65.60
2018-06-15T21:09:47.670Z,65.90
2018-06-15T21:12:16.239Z,66.10
2018-06-15T21:14:44.863Z,66.10
2018-06-15T21:17:14.454Z,66.20
2018-06-15T21:19:42.989Z,65.50
2018-06-15T21:22:11.586Z,66.00
2018-06-15T21:24:41.160Z,66.30
2018-06-15T21:27:11.150Z,66.30
2018-06-15T21:29:39.802Z,66.50
2018-06-15T21:32:09.531Z,66.70
2018-06-15T21:34:37.996Z,66.80
2018-06-15T21:37:06.681Z,66.70
2018-06-15T21:39:35.230Z,66.90
2018-06-15T21:42:03.836Z,67.00
2018-06-15T21:47:00.653Z,67.10
2018-06-15T21:49:29.162Z,66.80
2018-06-15T21:51:59.110Z,67.20
2018-06-15T21:54:28.204Z,67.00
2018-06-15T21:56:56.823Z,67.20
2018-06-15T21:59:25.327Z,67.40
2018-06-15T22:01:53.931Z,67.30
2018-06-15T22:04:22.684Z,67.40
2018-06-15T22:06:51.185Z,68.30
2018-06-15T22:09:19.739Z,67.70
2018-06-15T22:11:48.233Z,67.90
2018-06-15T22:14:17.508Z,67.90
2018-06-15T22:16:52.005Z,67.90
2018-06-15T22:19:22.567Z,68.20
2018-06-15T22:21:52.270Z,68.50
2018-06-15T22:24:21.561Z,68.60
2018-06-15T22:26:50.067Z,68.60
2018-06-15T22:29:18.759Z,68.20
2018-06-15T22:31:47.510Z,68.60
2018-06-15T22:34:20.860Z,68.40
2018-06-15T22:36:49.365Z,67.70
2018-06-15T22:39:18.994Z,68.60
2018-06-15T22:41:47.458Z,68.50
2018-06-15T22:44:17.009Z,68.50
2018-06-15T22:46:45.491Z,68.50
2018-06-15T22:49:14.024Z,68.50
2018-06-15T22:51:42.670Z,68.50
2018-06-15T22:54:11.247Z,68.50
2018-06-15T22:56:41.315Z,68.50
2018-06-15T22:59:09.811Z,69.10
2018-06-15T23:01:39.038Z,68.40
2018-06-15T23:04:07.819Z,68.50
2018-06-15T23:06:36.468Z,68.50
2018-06-15T23:09:07.426Z,68.50
2018-06-15T23:11:35.922Z,68.40
2018-06-15T23:14:04.610Z,68.40
2018-06-15T23:16:33.095Z,68.40
2018-06-15T23:19:01.587Z,68.40
2018-06-15T23:21:30.152Z,68.40
2018-06-15T23:23:58.641Z,68.40
2018-06-15T23:26:27.138Z,68.40
2018-06-15T23:28:55.683Z,68.60
2018-06-15T23:31:24.219Z,68.50
2018-06-15T23:33:52.670Z,68.30
2018-06-15T23:36:21.171Z,68.60
2018-06-15T23:38:49.606Z,68.60
2018-06-15T23:41:18.115Z,68.90
2018-06-15T23:43:46.593Z,68.60
2018-06-15T23:46:15.154Z,68.40
2018-06-15T23:48:43.636Z,69.20
2018-06-15T23:51:12.149Z,69.10
2018-06-15T23:53:40.690Z,69.60
2018-06-15T23:56:09.299Z,69.70
2018-06-15T23:58:37.818Z,69.90
